Friday, February 23, 2018, 1:44 PM EST
Back to Local

KBDL, Bradley International Airport

Location: Windsor Locks, CT, United States Lat: 41.933
Local Time: 1:44 PM EST (18:44 GMT) Lon: -72.683
Time Zone: US/Eastern Elev: 173 ft

Show me the last for .
Show Decoded

2018-02-23 12:51 METAR KBDL 231751Z 34004KT 3SM -RA BR OVC018 01/00 A3055 RMK AO2 SLP346 P0001
                 60001 T00110000 10017 21022 58028 =
2018-02-23 11:51 METAR KBDL 231651Z COR 00000KT 10SM -RA OVC020 01/M01 A3056 RMK AO2 RAB33 PRESFR
                 SLP351 P0000 T00111011 =
2018-02-23 10:51 METAR KBDL 231551Z 00000KT 10SM BKN021 OVC070 01/M02 A3062 RMK AO2 SLP371
                 T00111017 =
2018-02-23 09:51 METAR KBDL 231451Z 05003KT 10SM FEW015 BKN085 OVC150 01/M02 A3063 RMK AO2 SLP374
                 T00061017 58016 =
2018-02-23 08:51 METAR KBDL 231351Z 02005KT 10SM FEW015 BKN090 BKN210 M01/M02 A3067 RMK AO2
                 SLP387 T10061022 =
2018-02-23 07:51 METAR KBDL 231251Z 01006KT 10SM FEW120 BKN150 BKN210 BKN250 M01/M02 A3068 RMK
                 AO2 SLP392 T10111022 =
2018-02-23 06:51 METAR KBDL 231151Z 02004KT 10SM FEW050 SCT210 SCT250 M02/M03 A3068 RMK AO2
                 SLP390 4/001 70011 T10221033 10000 21028 50003 =
2018-02-23 05:51 METAR KBDL 231051Z 36004KT 10SM FEW055 SCT250 M02/M03 A3068 RMK AO2 SLP391
                 T10171028 =
2018-02-23 04:51 METAR KBDL 230951Z 01004KT 10SM BKN055 BKN250 M01/M02 A3067 RMK AO2 SLP388
                 T10111022 =
2018-02-23 03:51 METAR KBDL 230851Z 04004KT 10SM OVC055 00/M02 A3067 RMK AO2 SLP387 BINOVC
                 T00001017 58008 =
2018-02-23 02:51 METAR KBDL 230751Z 02006KT 10SM FEW014 OVC060 M01/M01 A3068 RMK AO2 SLP392
                 T10061011 =
2018-02-23 01:51 METAR KBDL 230651Z 33003KT 10SM FEW008 OVC060 M01/M02 A3069 RMK AO2 SLP393
                 BINOVC T10061017 =
2018-02-23 00:51 METAR KBDL 230551Z 00000KT 10SM FEW008 BKN055 M01/M01 A3069 RMK AO2 SLP395 4/001
                 T10061011 10006 21022 50002 =
2018-02-22 23:51 METAR KBDL 230451Z 01003KT 9SM FEW008 FEW024 BKN055 M02/M02 A3070 RMK AO2 SLP396
                 T10171022 401111022 =
2018-02-22 22:51 METAR KBDL 230351Z 02005KT 10SM FEW008 FEW024 SCT250 M02/M02 A3070 RMK AO2
                 SLP396 T10171022 =
2018-02-22 22:46 METAR KBDL 230346Z COR 02005KT 10SM FEW008 FEW024 FEW250 M02/M02 A3069 =
2018-02-22 21:51 METAR KBDL 230251Z COR 01007KT 10SM FEW005 FEW024 FEW250 M01/M02 A3069 RMK AO2
                 SLP393 T10061017 53009 =
2018-02-22 20:51 METAR KBDL 230151Z 36004KT 10SM FEW005 FEW250 M01/M01 A3066 RMK AO2 SLP386
                 T10061011 =
2018-02-22 19:51 METAR KBDL 230051Z 33004KT 10SM FEW005 FEW085 BKN250 00/M01 A3064 RMK AO2 SLP379
                 T00001006 =
2018-02-22 18:51 METAR KBDL 222351Z 01003KT 10SM SCT006 OVC090 01/M01 A3066 RMK AO2 SLP383
                 DZE10SNE10 4/001 P0000 60011 T00061006 10039 20000 58003 =
2018-02-22 17:51 METAR KBDL 222251Z 03005KT 6SM -SNDZ BR SCT006 SCT024 OVC095 01/00 A3067 RMK AO2
                 SLP386 DZB40 P0001 T00060000 =
2018-02-22 17:24 METAR KBDL 222224Z 01008KT 3SM -SN BR BKN005 BKN024 OVC040 01/00 A3068 RMK AO2
                 P0001 T00060000 =
2018-02-22 17:13 METAR KBDL 222213Z 01008KT 2SM -SN BR BKN005 BKN020 OVC040 01/M01 A3068 RMK AO2
                 SFC VIS 2 1/2 P0001 T00061006 =
2018-02-22 17:05 METAR KBDL 222205Z 02010KT 1SM R06/P6000FT -SN BR BKN005 BKN019 OVC047 01/00
                 A3067 RMK AO2 SFC VIS 2 P0000 T00060000 =
2018-02-22 16:51 METAR KBDL 222151Z 01006KT 1SM R06/P6000FT -SN BR SCT005 BKN018 OVC028 01/00
                 A3067 RMK AO2 SFC VIS 1 1/2 SLP386 P0004 T00060000 =
2018-02-22 16:21 METAR KBDL 222121Z 36008KT 1SM R06/6000VP6000FT -SN BR FEW006 BKN019 OVC030
                 01/M01 A3066 RMK AO2 P0001 T00061006 =
2018-02-22 16:04 METAR KBDL 222104Z 01009KT 1 3/4SM -SN BR FEW006 SCT019 OVC030 00/M01 A3065 RMK
                 AO2 TWR VIS 2 P0001 T00001006 =
2018-02-22 15:51 METAR KBDL 222051Z 36008KT 1 1/2SM -SN BR BKN025 BKN035 OVC045 00/M01 A3064 RMK
                 AO2 TWR VIS 2 RAE1955SNB1955PLE51 SLP377 P0003 60006 T00001006 51016 =
2018-02-22 15:45 METAR KBDL 222045Z 01009KT 1 3/4SM -SNPL BR BKN030 OVC038 01/M01 A3063 RMK AO2
                 TWR VIS 2 RAE1955SNB1955 P0003 =
2018-02-22 15:14 METAR KBDL 222014Z 36010KT 2 1/2SM -SNPL BR FEW030 BKN038 OVC050 01/M02 A3063
                 RMK AO2 TWR VIS 3 RAE1955SNB1955 P0001 T00061017 =
2018-02-22 14:51 METAR KBDL 221951Z 01009KT 8SM -RAPL OVC055 02/M03 A3061 RMK AO2 SLP366 P0002
                 T00171028 =
2018-02-22 13:51 METAR KBDL 221851Z 01011KT 7SM -PLRA OVC065 03/M03 A3059 RMK AO2
                 RAB1756E12B29PLB42 SLP360 P0001 T00281033 =
2018-02-22 13:45 METAR KBDL 221845Z 01011KT 7SM -PLRA OVC060 03/M03 A3059 RMK AO2
                 RAB1756E12B29PLB42 P0001 =

Support USWX by starting your Amazon purchase here.